Terminal Aerodrome Forecast
Issued by NWS Louisville, KY

Home | Current Version | Previous Version | Text Only | Print | Product List | Glossary On
Versions: 1 2 3 4 5 6 7 8 9 10 11 12 13 14 15 16
000
FTUS43 KLMK 281739
TAFSDF
TAF
KSDF 281739Z 2818/2924 01012G20KT P6SM VCSH SCT015 BKN040
      TEMPO 2818/2819 BKN015
     FM282000 01010G18KT P6SM SCT025 BKN040
     FM282300 01011KT P6SM FEW040 SCT080
     FM291300 02006KT P6SM SKC=

USA.gov is the U.S. government's official web portal to all federal, state and local government web resources and services.